McClure, Pennsylvania
Current Conditions -  °F | °C
As of 9:53 AM on Friday 31 Oct 2014 (Local Time) from KSEG Reporting Station
Overcast Overcast  
Wind Chill: 43°   Ceiling: 6000
Heat Index: 43°   Visibility: 10mi
Dew Point: 36°   Wind: 3mph
Humidity: 76%   Direction: 360°N
Pressure: 30.01"   Gusts: NA
Location:  40.71°N, 77.31°W
Report Text: KSEG 311353Z AUTO 36003KT 10SM OVC060 06/02 A3001 RMK AO2 SLP164 T00610022
Loading
Personal Weather Stations






























Interactive Weather Map New forecast layout! Learn more

10-Day Weather Forecast

Advertisements
Track Severe Weather on mobile